createdAt,value
2023-01-26T00:01:35.950Z,21.70
2023-01-26T00:04:03.608Z,18.98
2023-01-26T00:06:30.671Z,19.85
2023-01-26T00:08:58.122Z,25.90
2023-01-26T00:11:27.178Z,29.65
2023-01-26T00:13:56.121Z,34.03
2023-01-26T00:16:23.643Z,32.13
2023-01-26T00:18:51.190Z,31.25
2023-01-26T00:21:21.099Z,36.70
2023-01-26T00:23:49.689Z,21.25
2023-01-26T00:26:19.308Z,23.88
2023-01-26T00:28:47.874Z,41.90
2023-01-26T00:31:18.020Z,23.52
2023-01-26T00:33:46.265Z,38.38
2023-01-26T00:36:14.039Z,28.77
2023-01-26T00:38:42.234Z,31.50
2023-01-26T00:41:30.296Z,25.05
2023-01-26T00:43:57.907Z,21.98
2023-01-26T00:46:25.079Z,21.38
2023-01-26T00:48:52.619Z,20.73
2023-01-26T00:51:19.720Z,19.60
2023-01-26T00:53:47.369Z,20.95
2023-01-26T00:56:14.837Z,20.48
2023-01-26T00:58:43.062Z,18.88
2023-01-26T01:01:11.943Z,20.40
2023-01-26T01:03:43.150Z,21.90
2023-01-26T01:06:10.417Z,21.58
2023-01-26T01:08:37.944Z,18.02
2023-01-26T01:11:08.937Z,19.75
2023-01-26T01:13:36.583Z,20.00
2023-01-26T01:16:12.818Z,19.67
2023-01-26T01:18:40.797Z,19.58
2023-01-26T01:21:15.482Z,20.77
2023-01-26T01:23:43.893Z,18.73
2023-01-26T01:26:11.740Z,17.85
2023-01-26T01:28:39.928Z,18.23
2023-01-26T01:31:12.517Z,18.63
2023-01-26T01:33:40.399Z,19.38
2023-01-26T01:36:14.186Z,17.60
2023-01-26T01:38:42.989Z,19.95
2023-01-26T01:41:11.093Z,18.40
2023-01-26T01:43:39.078Z,19.05
2023-01-26T01:46:33.482Z,17.30
2023-01-26T01:49:17.161Z,18.90
2023-01-26T01:51:52.350Z,18.52
2023-01-26T01:54:28.972Z,18.58
2023-01-26T01:56:58.901Z,17.30
2023-01-26T01:59:26.880Z,17.98
2023-01-26T02:01:56.802Z,18.92
2023-01-26T02:04:25.749Z,19.08
2023-01-26T02:06:55.317Z,20.00
2023-01-26T02:09:54.287Z,18.00
2023-01-26T02:12:29.384Z,19.48
2023-01-26T02:14:58.104Z,20.20
2023-01-26T02:17:26.846Z,18.15
2023-01-26T02:20:02.977Z,17.95
2023-01-26T02:22:49.976Z,18.13
2023-01-26T02:25:34.496Z,18.33
2023-01-26T02:28:02.052Z,17.63
2023-01-26T02:30:30.030Z,19.83
2023-01-26T02:32:57.406Z,18.92
2023-01-26T02:35:24.905Z,19.73
2023-01-26T02:37:52.868Z,21.05
2023-01-26T02:40:32.247Z,20.45
2023-01-26T02:42:59.455Z,18.13
2023-01-26T02:45:29.494Z,18.38
2023-01-26T02:50:26.028Z,20.05
2023-01-26T02:52:53.558Z,19.80
2023-01-26T02:55:25.110Z,19.88
2023-01-26T02:57:58.324Z,20.65
2023-01-26T03:00:29.138Z,19.80
2023-01-26T03:02:59.704Z,20.00
2023-01-26T03:05:28.279Z,19.33
2023-01-26T03:07:56.104Z,20.88
2023-01-26T03:10:27.716Z,20.60
2023-01-26T03:12:54.876Z,19.17
2023-01-26T03:15:41.363Z,21.60
2023-01-26T03:18:33.062Z,21.50
2023-01-26T03:21:39.173Z,20.38
2023-01-26T03:24:25.092Z,21.23
2023-01-26T03:27:13.706Z,20.67
2023-01-26T03:29:40.964Z,19.88
2023-01-26T03:32:08.413Z,20.25
2023-01-26T03:34:35.572Z,19.50
2023-01-26T03:37:05.127Z,20.42
2023-01-26T03:40:01.541Z,19.85
2023-01-26T03:42:48.307Z,25.88
2023-01-26T03:45:34.522Z,20.60
2023-01-26T03:48:29.518Z,21.80
2023-01-26T03:51:15.883Z,22.67
2023-01-26T03:54:02.489Z,20.25
2023-01-26T03:56:33.875Z,21.50
2023-01-26T03:59:15.417Z,18.38
2023-01-26T04:02:06.696Z,19.08
2023-01-26T04:04:54.775Z,18.10
2023-01-26T04:07:45.785Z,18.17
2023-01-26T04:10:13.434Z,19.20
2023-01-26T04:12:42.341Z,18.90
2023-01-26T04:15:36.907Z,19.88
2023-01-26T04:18:27.015Z,20.08
2023-01-26T04:21:14.476Z,19.52
2023-01-26T04:23:44.249Z,18.55
2023-01-26T04:26:11.739Z,19.02
2023-01-26T04:28:39.276Z,20.70
2023-01-26T04:31:06.985Z,19.67
2023-01-26T04:33:36.687Z,18.80
2023-01-26T04:36:09.246Z,26.10
2023-01-26T04:38:40.223Z,19.13
2023-01-26T04:41:07.823Z,20.92
2023-01-26T04:43:41.909Z,22.17
2023-01-26T04:46:09.982Z,29.65
2023-01-26T04:51:12.715Z,54.30
2023-01-26T04:53:40.094Z,50.25
2023-01-26T04:56:11.835Z,49.70
2023-01-26T04:58:38.951Z,46.47
2023-01-26T05:01:06.509Z,36.63
2023-01-26T05:03:33.698Z,41.70
2023-01-26T05:06:01.126Z,20.00
2023-01-26T05:08:29.302Z,20.50
2023-01-26T05:10:56.865Z,18.08
2023-01-26T05:13:41.399Z,20.80
2023-01-26T05:16:24.506Z,27.45
2023-01-26T05:19:27.476Z,29.13
2023-01-26T05:22:27.097Z,22.73
2023-01-26T05:25:20.682Z,41.85
2023-01-26T05:28:05.087Z,34.45
2023-01-26T05:30:32.464Z,31.10
2023-01-26T05:33:06.561Z,30.48
2023-01-26T05:35:34.693Z,22.88
2023-01-26T05:38:03.284Z,20.88
2023-01-26T05:40:32.825Z,24.15
2023-01-26T05:43:00.887Z,21.05
2023-01-26T05:45:46.452Z,31.60
2023-01-26T05:48:15.387Z,28.90
2023-01-26T05:50:42.517Z,24.63
2023-01-26T05:53:19.703Z,20.15
2023-01-26T05:55:47.753Z,20.35
2023-01-26T05:58:15.408Z,19.63
2023-01-26T06:00:42.536Z,18.05
2023-01-26T06:03:17.421Z,19.77
2023-01-26T06:05:52.012Z,19.65
2023-01-26T06:08:24.371Z,19.45
2023-01-26T06:11:14.574Z,19.85
2023-01-26T06:14:03.806Z,18.80
2023-01-26T06:16:30.995Z,19.83
2023-01-26T06:18:58.591Z,21.75
2023-01-26T06:21:26.102Z,21.30
2023-01-26T06:23:54.811Z,22.42
2023-01-26T06:26:25.935Z,21.05
2023-01-26T06:28:55.740Z,22.40
2023-01-26T06:31:29.579Z,23.10
2023-01-26T06:33:59.269Z,22.63
2023-01-26T06:36:29.046Z,23.08
2023-01-26T06:39:00.526Z,22.83
2023-01-26T06:41:28.572Z,24.08
2023-01-26T06:43:56.747Z,22.08
2023-01-26T06:46:24.165Z,24.02
2023-01-26T06:48:54.194Z,23.15
2023-01-26T06:51:21.259Z,23.17
2023-01-26T06:53:53.311Z,22.70
2023-01-26T06:56:35.726Z,21.48
2023-01-26T06:59:21.953Z,32.10
2023-01-26T07:02:20.400Z,26.17
2023-01-26T07:04:49.580Z,24.20
2023-01-26T07:07:16.657Z,28.35
2023-01-26T07:09:44.639Z,28.20
2023-01-26T07:12:11.785Z,21.90
2023-01-26T07:14:39.239Z,20.17
2023-01-26T07:17:06.409Z,24.63
2023-01-26T07:19:34.019Z,23.23
2023-01-26T07:22:01.740Z,23.17
2023-01-26T07:24:29.628Z,20.30
2023-01-26T07:26:57.145Z,21.23
2023-01-26T07:29:24.723Z,21.65
2023-01-26T07:31:51.893Z,21.50
2023-01-26T07:34:19.338Z,29.88
2023-01-26T07:36:46.478Z,29.60
2023-01-26T07:39:13.810Z,31.70
2023-01-26T07:41:40.829Z,25.65
2023-01-26T07:44:32.896Z,20.88
2023-01-26T07:46:59.956Z,21.27
2023-01-26T07:49:27.489Z,20.30
2023-01-26T07:51:54.690Z,20.17
2023-01-26T07:54:22.347Z,21.77
2023-01-26T07:56:54.554Z,18.25
2023-01-26T07:59:23.008Z,18.90
2023-01-26T08:01:51.520Z,17.58
2023-01-26T08:04:18.977Z,22.88
2023-01-26T08:06:46.168Z,21.17
2023-01-26T08:09:13.700Z,16.92
2023-01-26T08:11:40.711Z,16.85
2023-01-26T08:14:08.246Z,17.55
2023-01-26T08:16:35.802Z,19.33
2023-01-26T08:19:03.906Z,17.38
2023-01-26T08:21:31.162Z,19.02
2023-01-26T08:24:01.909Z,20.52
2023-01-26T08:26:29.576Z,17.42
2023-01-26T08:28:57.079Z,16.55
2023-01-26T08:31:25.443Z,16.65
2023-01-26T08:33:54.422Z,17.73
2023-01-26T08:36:23.036Z,17.95
2023-01-26T08:38:51.409Z,18.80
2023-01-26T08:41:19.020Z,21.73
2023-01-26T08:43:46.555Z,18.65
2023-01-26T08:46:13.947Z,20.92
2023-01-26T08:48:41.429Z,19.30
2023-01-26T08:51:08.826Z,25.20
2023-01-26T08:53:37.482Z,20.95
2023-01-26T08:56:07.170Z,23.63
2023-01-26T09:01:06.878Z,20.38
2023-01-26T09:03:34.715Z,20.20
2023-01-26T09:06:02.770Z,19.98
2023-01-26T09:08:30.515Z,20.95
2023-01-26T09:10:57.692Z,19.20
2023-01-26T09:13:25.195Z,17.50
2023-01-26T09:15:52.663Z,23.83
2023-01-26T09:18:20.579Z,36.05
2023-01-26T09:20:47.868Z,34.58
2023-01-26T09:23:17.953Z,27.80
2023-01-26T09:25:45.327Z,20.35
2023-01-26T09:28:12.913Z,18.98
2023-01-26T09:30:40.100Z,19.20
2023-01-26T09:33:07.468Z,20.92
2023-01-26T09:35:34.499Z,20.90
2023-01-26T09:38:01.874Z,17.40
2023-01-26T09:40:43.393Z,18.95
2023-01-26T09:43:22.247Z,39.90
2023-01-26T09:46:18.777Z,48.22
2023-01-26T09:49:12.989Z,22.30
2023-01-26T09:51:44.622Z,19.08
2023-01-26T09:54:24.093Z,29.88
2023-01-26T09:56:51.321Z,18.95
2023-01-26T09:59:38.391Z,35.88
2023-01-26T10:02:11.657Z,30.38
2023-01-26T10:04:42.920Z,24.58
2023-01-26T10:07:13.754Z,21.00
2023-01-26T10:09:50.916Z,52.40
2023-01-26T10:12:18.148Z,19.88
2023-01-26T10:15:11.365Z,19.77
2023-01-26T10:17:41.715Z,21.15
2023-01-26T10:20:31.235Z,20.58
2023-01-26T10:23:04.409Z,20.17
2023-01-26T10:25:37.690Z,22.48
2023-01-26T10:28:14.382Z,20.20
2023-01-26T10:30:43.983Z,21.35
2023-01-26T10:33:16.973Z,19.98
2023-01-26T10:35:45.035Z,23.38
2023-01-26T10:38:33.304Z,24.73
2023-01-26T10:41:04.633Z,22.48
2023-01-26T10:43:41.400Z,21.63
2023-01-26T10:46:29.210Z,22.60
2023-01-26T10:49:00.706Z,30.60
2023-01-26T10:51:33.912Z,27.50
2023-01-26T10:54:24.975Z,23.38
2023-01-26T10:57:02.509Z,21.33
2023-01-26T10:59:33.738Z,29.95
2023-01-26T11:02:19.851Z,22.17
2023-01-26T11:05:15.676Z,25.65
2023-01-26T11:07:45.896Z,23.27
2023-01-26T11:10:38.153Z,19.42
2023-01-26T11:13:13.292Z,34.50
2023-01-26T11:15:47.984Z,22.83
2023-01-26T11:18:34.137Z,20.95
2023-01-26T11:21:17.141Z,32.28
2023-01-26T11:24:03.251Z,20.45
2023-01-26T11:26:53.730Z,22.23
2023-01-26T11:29:45.957Z,27.25
2023-01-26T11:32:44.239Z,22.63
2023-01-26T11:35:45.855Z,22.55
2023-01-26T11:38:25.248Z,21.38
2023-01-26T11:41:07.867Z,19.52
2023-01-26T11:43:49.383Z,25.27
2023-01-26T11:46:54.221Z,25.63
2023-01-26T11:49:26.898Z,22.45
2023-01-26T11:52:24.985Z,28.30
2023-01-26T11:55:05.320Z,24.05
2023-01-26T11:57:56.203Z,26.15
2023-01-26T12:00:40.321Z,29.40
2023-01-26T12:03:18.183Z,28.15
2023-01-26T12:05:51.543Z,30.80
2023-01-26T12:08:40.886Z,28.30
2023-01-26T12:11:26.205Z,32.97
2023-01-26T12:14:15.532Z,25.17
2023-01-26T12:17:20.028Z,24.63
2023-01-26T12:20:05.986Z,36.03
2023-01-26T12:22:39.087Z,32.88
2023-01-26T12:25:39.609Z,30.52
2023-01-26T12:28:25.356Z,34.50
2023-01-26T12:31:16.008Z,33.30
2023-01-26T12:33:43.582Z,31.80
2023-01-26T12:36:35.194Z,28.65
2023-01-26T12:39:20.280Z,33.50
2023-01-26T12:41:50.550Z,25.67
2023-01-26T12:44:37.542Z,27.52
2023-01-26T12:47:13.995Z,27.65
2023-01-26T12:50:06.290Z,29.40
2023-01-26T12:52:49.224Z,27.67
2023-01-26T12:55:20.680Z,30.90
2023-01-26T12:57:57.728Z,27.35
2023-01-26T13:00:32.791Z,29.67
2023-01-26T13:03:16.121Z,28.50
2023-01-26T13:06:09.389Z,27.75
2023-01-26T13:08:37.886Z,32.72
2023-01-26T13:11:07.211Z,28.52
2023-01-26T13:13:57.253Z,28.88
2023-01-26T13:18:54.467Z,27.13
2023-01-26T13:21:39.973Z,34.10
2023-01-26T13:24:16.435Z,33.10
2023-01-26T13:26:48.938Z,32.22
2023-01-26T13:29:25.512Z,29.42
2023-01-26T13:31:57.057Z,29.90
2023-01-26T13:34:33.650Z,29.20
2023-01-26T13:37:10.074Z,27.95
2023-01-26T13:39:41.391Z,28.35
2023-01-26T13:42:20.796Z,33.75
2023-01-26T13:47:37.753Z,54.60
2023-01-26T13:50:24.067Z,97.00
2023-01-26T13:52:51.495Z,139.32
2023-01-26T13:55:26.183Z,35.67
2023-01-26T13:58:19.157Z,26.48
2023-01-26T14:01:01.697Z,32.33
2023-01-26T14:03:31.111Z,39.75
2023-01-26T14:06:17.723Z,48.78
2023-01-26T14:08:54.532Z,44.92
2023-01-26T14:11:25.690Z,23.20
2023-01-26T14:13:56.779Z,31.00
2023-01-26T14:16:33.151Z,47.17
2023-01-26T14:19:16.238Z,39.97
2023-01-26T14:21:54.842Z,47.03
2023-01-26T14:24:39.815Z,58.17
2023-01-26T14:27:41.356Z,58.35
2023-01-26T14:30:30.011Z,37.65
2023-01-26T14:33:08.272Z,38.65
2023-01-26T14:35:35.941Z,40.90
2023-01-26T14:38:28.774Z,37.45
2023-01-26T14:40:58.332Z,28.95
2023-01-26T14:43:30.154Z,34.83
2023-01-26T14:46:09.625Z,42.42
2023-01-26T14:51:24.719Z,76.80
2023-01-26T14:53:56.586Z,79.55
2023-01-26T14:56:39.423Z,60.15
2023-01-26T14:59:09.703Z,60.30
2023-01-26T15:04:24.465Z,54.30
2023-01-26T15:06:51.730Z,58.30
2023-01-26T15:09:25.332Z,45.75
2023-01-26T15:12:17.533Z,46.88
2023-01-26T15:14:46.515Z,42.42
2023-01-26T15:17:36.444Z,55.38
2023-01-26T15:20:23.246Z,38.63
2023-01-26T15:22:53.142Z,40.70
2023-01-26T15:25:26.248Z,42.63
2023-01-26T15:27:58.797Z,46.17
2023-01-26T15:30:31.628Z,41.00
2023-01-26T15:32:59.550Z,43.42
2023-01-26T15:35:31.289Z,49.22
2023-01-26T15:38:01.641Z,60.80
2023-01-26T15:40:30.367Z,51.10
2023-01-26T15:43:20.362Z,55.33
2023-01-26T15:45:58.436Z,52.47
2023-01-26T15:48:26.845Z,51.35
2023-01-26T15:50:54.507Z,41.75
2023-01-26T15:53:22.960Z,38.35
2023-01-26T15:55:56.202Z,40.70
2023-01-26T15:58:24.844Z,48.72
2023-01-26T16:00:53.767Z,46.92
2023-01-26T16:03:22.693Z,46.35
2023-01-26T16:05:51.797Z,42.05
2023-01-26T16:08:20.879Z,40.75
2023-01-26T16:11:09.910Z,42.03
2023-01-26T16:13:37.627Z,40.13
2023-01-26T16:16:06.497Z,47.85
2023-01-26T16:18:33.786Z,36.35
2023-01-26T16:21:02.660Z,38.40
2023-01-26T16:23:32.073Z,53.08
2023-01-26T16:25:59.946Z,59.28
2023-01-26T16:28:27.856Z,52.17
2023-01-26T16:30:56.325Z,60.83
2023-01-26T16:33:24.896Z,58.50
2023-01-26T16:35:54.770Z,56.60
2023-01-26T16:38:22.252Z,55.65
2023-01-26T16:40:49.988Z,42.30
2023-01-26T16:43:42.891Z,39.05
2023-01-26T16:46:11.550Z,46.97
2023-01-26T16:48:40.696Z,79.65
2023-01-26T16:51:20.665Z,78.63
2023-01-26T16:53:49.237Z,87.22
2023-01-26T16:56:18.568Z,60.83
2023-01-26T16:58:46.792Z,53.85
2023-01-26T17:01:22.085Z,51.53
2023-01-26T17:03:51.437Z,55.60
2023-01-26T17:06:20.343Z,63.28
2023-01-26T17:08:48.637Z,54.80
2023-01-26T17:11:25.516Z,60.97
2023-01-26T17:13:56.324Z,68.10
2023-01-26T17:16:33.038Z,50.17
2023-01-26T17:19:00.691Z,38.58
2023-01-26T17:21:28.662Z,59.83
2023-01-26T17:23:58.931Z,59.70
2023-01-26T17:26:26.827Z,60.58
2023-01-26T17:28:56.018Z,82.13
2023-01-26T17:31:25.176Z,39.50
2023-01-26T17:33:54.457Z,43.00
2023-01-26T17:36:22.636Z,50.35
2023-01-26T17:38:50.133Z,42.88
2023-01-26T17:41:17.766Z,73.13
2023-01-26T17:43:45.775Z,95.20
2023-01-26T17:46:25.217Z,72.95
2023-01-26T17:48:54.939Z,58.85
2023-01-26T17:51:23.398Z,62.60
2023-01-26T17:53:51.307Z,52.35
2023-01-26T17:56:21.859Z,55.55
2023-01-26T17:58:55.082Z,45.47
2023-01-26T18:01:25.675Z,53.15
2023-01-26T18:03:56.593Z,45.10
2023-01-26T18:06:24.571Z,54.53
2023-01-26T18:08:52.373Z,54.45
2023-01-26T18:11:20.825Z,54.78
2023-01-26T18:13:48.973Z,56.72
2023-01-26T18:16:19.846Z,53.10
2023-01-26T18:18:47.626Z,53.78
2023-01-26T18:21:18.903Z,66.15
2023-01-26T18:23:54.829Z,72.30
2023-01-26T18:26:25.419Z,59.15
2023-01-26T18:28:53.224Z,64.43
2023-01-26T18:31:25.636Z,52.67
2023-01-26T18:33:54.048Z,48.85
2023-01-26T18:36:23.347Z,56.45
2023-01-26T18:39:09.301Z,47.15
2023-01-26T18:41:38.220Z,42.47
2023-01-26T18:44:06.069Z,43.50
2023-01-26T18:46:34.263Z,42.80
2023-01-26T18:49:03.169Z,40.17
2023-01-26T18:51:34.563Z,49.10
2023-01-26T18:54:04.448Z,60.42
2023-01-26T18:56:32.563Z,50.72
2023-01-26T18:59:00.099Z,56.00
2023-01-26T19:01:29.539Z,57.75
2023-01-26T19:03:58.775Z,60.42
2023-01-26T19:06:26.784Z,63.75
2023-01-26T19:09:06.821Z,59.97
2023-01-26T19:11:37.786Z,48.05
2023-01-26T19:14:08.913Z,46.08
2023-01-26T19:16:42.482Z,47.70
2023-01-26T19:19:12.016Z,63.38
2023-01-26T19:21:40.212Z,81.80
2023-01-26T19:24:09.455Z,71.13
2023-01-26T19:26:37.417Z,43.88
2023-01-26T19:29:05.480Z,32.00
2023-01-26T19:31:35.483Z,29.45
2023-01-26T19:34:07.573Z,45.88
2023-01-26T19:36:38.610Z,44.22
2023-01-26T19:39:07.921Z,27.70
2023-01-26T19:41:36.830Z,26.45
2023-01-26T19:44:06.344Z,26.67
2023-01-26T19:46:34.974Z,30.30
2023-01-26T19:49:02.798Z,31.25
2023-01-26T19:51:31.527Z,40.67
2023-01-26T19:54:00.058Z,30.85
2023-01-26T19:56:33.239Z,40.27
2023-01-26T19:59:05.813Z,42.08
2023-01-26T20:01:34.242Z,48.30
2023-01-26T20:04:05.463Z,50.95
2023-01-26T20:06:36.269Z,45.33
2023-01-26T20:09:06.894Z,36.88
2023-01-26T20:11:36.993Z,41.78
2023-01-26T20:16:35.644Z,46.92
2023-01-26T20:19:04.389Z,50.00
2023-01-26T20:21:34.383Z,45.23
2023-01-26T20:26:36.511Z,50.10
2023-01-26T20:29:06.401Z,55.47
2023-01-26T20:31:34.917Z,48.47
2023-01-26T20:34:02.962Z,56.35
2023-01-26T20:36:33.552Z,56.55
2023-01-26T20:39:01.900Z,49.88
2023-01-26T20:41:32.788Z,44.45
2023-01-26T20:44:03.755Z,34.00
2023-01-26T20:46:40.196Z,28.70
2023-01-26T20:49:11.743Z,32.40
2023-01-26T20:51:42.808Z,31.92
2023-01-26T20:54:13.384Z,36.33
2023-01-26T20:56:42.754Z,37.65
2023-01-26T20:59:11.085Z,33.28
2023-01-26T21:01:39.749Z,36.65
2023-01-26T21:04:07.471Z,39.47
2023-01-26T21:06:36.643Z,32.60
2023-01-26T21:09:05.545Z,34.78
2023-01-26T21:11:34.523Z,38.83
2023-01-26T21:14:02.889Z,39.95
2023-01-26T21:16:33.163Z,43.25
2023-01-26T21:19:01.195Z,44.85
2023-01-26T21:21:29.563Z,43.50
2023-01-26T21:23:57.358Z,43.47
2023-01-26T21:26:28.532Z,43.28
2023-01-26T21:28:59.171Z,41.88
2023-01-26T21:31:30.039Z,35.22
2023-01-26T21:36:29.268Z,26.48
2023-01-26T21:38:59.251Z,32.25
2023-01-26T21:41:50.639Z,35.95
2023-01-26T21:44:23.928Z,34.42
2023-01-26T21:46:54.816Z,35.22
2023-01-26T21:49:23.896Z,46.03
2023-01-26T21:52:11.072Z,28.55
2023-01-26T21:54:39.035Z,27.63
2023-01-26T21:57:28.889Z,31.55
2023-01-26T21:59:56.449Z,56.05
2023-01-26T22:02:24.409Z,53.00
2023-01-26T22:04:51.977Z,56.80
2023-01-26T22:07:19.500Z,66.53
2023-01-26T22:09:46.664Z,56.20
2023-01-26T22:12:14.157Z,51.60
2023-01-26T22:14:41.503Z,68.30
2023-01-26T22:17:13.459Z,64.18
2023-01-26T22:19:45.807Z,56.80
2023-01-26T22:22:13.613Z,46.08
2023-01-26T22:24:40.957Z,40.83
2023-01-26T22:27:08.466Z,33.50
2023-01-26T22:29:35.783Z,34.50
2023-01-26T22:32:03.826Z,29.27
2023-01-26T22:34:32.497Z,27.25
2023-01-26T22:37:00.145Z,27.10
2023-01-26T22:39:27.552Z,26.30
2023-01-26T22:41:55.337Z,26.27
2023-01-26T22:44:22.837Z,25.30
2023-01-26T22:46:52.669Z,26.17
2023-01-26T22:49:20.018Z,28.95
2023-01-26T22:51:47.687Z,29.98
2023-01-26T22:54:14.985Z,28.45
2023-01-26T22:56:42.380Z,28.42
2023-01-26T22:59:09.758Z,29.88
2023-01-26T23:01:37.309Z,29.25
2023-01-26T23:04:04.643Z,28.88
2023-01-26T23:06:32.277Z,28.30
2023-01-26T23:09:02.170Z,27.95
2023-01-26T23:11:32.311Z,29.08
2023-01-26T23:14:00.846Z,30.52
2023-01-26T23:16:28.863Z,29.27
2023-01-26T23:18:58.307Z,28.13
2023-01-26T23:21:29.790Z,32.58
2023-01-26T23:23:57.667Z,29.63
2023-01-26T23:26:26.060Z,29.25
2023-01-26T23:28:54.208Z,30.50
2023-01-26T23:31:22.069Z,30.60
2023-01-26T23:33:49.681Z,29.20
2023-01-26T23:36:17.479Z,32.38
2023-01-26T23:38:45.862Z,33.80
2023-01-26T23:41:13.564Z,35.25
2023-01-26T23:43:40.963Z,31.67
2023-01-26T23:46:09.827Z,35.83
2023-01-26T23:48:37.605Z,36.60
2023-01-26T23:51:10.404Z,35.13
2023-01-26T23:53:38.114Z,32.53
2023-01-26T23:56:08.847Z,34.70
2023-01-26T23:58:37.429Z,33.05
